sensor_id;sensor_type;location;lat;lon;timestamp;pressure;altitude;pressure_sealevel;temperature;humidity
14117;BME280;7137;51.436;6.544;2024-02-26T00:02:57;99456.06;;;7.05;87.75
14117;BME280;7137;51.436;6.544;2024-02-26T00:05:59;99458.34;;;7.13;86.18
14117;BME280;7137;51.436;6.544;2024-02-26T00:09:00;99464.19;;;7.20;85.87
14117;BME280;7137;51.436;6.544;2024-02-26T00:12:04;99464.00;;;7.24;85.86
14117;BME280;7137;51.436;6.544;2024-02-26T00:15:06;99444.00;;;7.26;85.61
14117;BME280;7137;51.436;6.544;2024-02-26T00:18:08;99448.09;;;7.32;85.37
14117;BME280;7137;51.436;6.544;2024-02-26T00:21:10;99449.69;;;7.36;86.67
14117;BME280;7137;51.436;6.544;2024-02-26T00:24:11;99444.78;;;7.06;87.56
14117;BME280;7137;51.436;6.544;2024-02-26T00:27:14;99437.94;;;7.04;87.01
14117;BME280;7137;51.436;6.544;2024-02-26T00:30:16;99442.28;;;7.03;88.12
14117;BME280;7137;51.436;6.544;2024-02-26T00:33:17;99436.69;;;7.14;87.93
14117;BME280;7137;51.436;6.544;2024-02-26T00:36:19;99431.00;;;7.04;87.19
14117;BME280;7137;51.436;6.544;2024-02-26T00:39:20;99432.00;;;7.00;87.91
14117;BME280;7137;51.436;6.544;2024-02-26T00:42:23;99433.75;;;7.00;88.15
14117;BME280;7137;51.436;6.544;2024-02-26T00:45:25;99434.44;;;7.05;88.04
14117;BME280;7137;51.436;6.544;2024-02-26T00:48:26;99453.59;;;7.24;88.17
14117;BME280;7137;51.436;6.544;2024-02-26T00:51:28;99467.19;;;7.31;88.04
14117;BME280;7137;51.436;6.544;2024-02-26T00:54:29;99460.03;;;7.37;86.66
14117;BME280;7137;51.436;6.544;2024-02-26T00:57:32;99456.09;;;7.49;87.90
14117;BME280;7137;51.436;6.544;2024-02-26T01:00:34;99456.47;;;7.62;86.58
14117;BME280;7137;51.436;6.544;2024-02-26T01:03:36;99459.59;;;7.70;85.54
14117;BME280;7137;51.436;6.544;2024-02-26T01:06:37;99451.91;;;7.45;86.21
14117;BME280;7137;51.436;6.544;2024-02-26T01:09:39;99439.84;;;6.99;88.47
14117;BME280;7137;51.436;6.544;2024-02-26T01:12:42;99442.50;;;6.97;88.88
14117;BME280;7137;51.436;6.544;2024-02-26T01:15:43;99448.16;;;7.08;87.46
14117;BME280;7137;51.436;6.544;2024-02-26T01:18:45;99453.03;;;7.16;89.29
14117;BME280;7137;51.436;6.544;2024-02-26T01:21:46;99446.78;;;7.22;87.28
14117;BME280;7137;51.436;6.544;2024-02-26T01:24:48;99457.97;;;7.24;87.76
14117;BME280;7137;51.436;6.544;2024-02-26T01:27:51;99455.22;;;7.27;87.00
14117;BME280;7137;51.436;6.544;2024-02-26T01:30:52;99455.88;;;7.33;87.23
14117;BME280;7137;51.436;6.544;2024-02-26T01:33:54;99457.50;;;7.12;87.67
14117;BME280;7137;51.436;6.544;2024-02-26T01:36:55;99458.94;;;7.21;86.75
14117;BME280;7137;51.436;6.544;2024-02-26T01:39:57;99459.97;;;7.15;86.65
14117;BME280;7137;51.436;6.544;2024-02-26T01:43:00;99458.09;;;7.21;86.74
14117;BME280;7137;51.436;6.544;2024-02-26T01:46:03;99456.53;;;7.15;87.59
14117;BME280;7137;51.436;6.544;2024-02-26T01:49:06;99454.63;;;7.20;86.93
14117;BME280;7137;51.436;6.544;2024-02-26T01:52:08;99451.13;;;7.21;85.47
14117;BME280;7137;51.436;6.544;2024-02-26T01:55:11;99461.59;;;7.20;86.59
14117;BME280;7137;51.436;6.544;2024-02-26T01:58:15;99462.72;;;7.12;86.81
14117;BME280;7137;51.436;6.544;2024-02-26T02:01:18;99460.63;;;7.22;85.25
14117;BME280;7137;51.436;6.544;2024-02-26T02:04:23;99470.09;;;7.23;85.17
14117;BME280;7137;51.436;6.544;2024-02-26T02:07:24;99465.88;;;7.21;85.15
14117;BME280;7137;51.436;6.544;2024-02-26T02:10:26;99459.91;;;7.19;84.99
14117;BME280;7137;51.436;6.544;2024-02-26T02:13:30;99457.22;;;7.20;85.87
14117;BME280;7137;51.436;6.544;2024-02-26T02:16:31;99455.16;;;7.06;85.95
14117;BME280;7137;51.436;6.544;2024-02-26T02:19:33;99462.03;;;7.07;85.93
14117;BME280;7137;51.436;6.544;2024-02-26T02:22:36;99453.63;;;7.01;86.57
14117;BME280;7137;51.436;6.544;2024-02-26T02:25:38;99457.00;;;7.03;85.88
14117;BME280;7137;51.436;6.544;2024-02-26T02:28:40;99471.59;;;7.07;86.23
14117;BME280;7137;51.436;6.544;2024-02-26T02:31:42;99460.63;;;6.99;85.66
14117;BME280;7137;51.436;6.544;2024-02-26T02:34:44;99458.03;;;6.99;86.63
14117;BME280;7137;51.436;6.544;2024-02-26T02:37:47;99456.56;;;6.92;86.94
14117;BME280;7137;51.436;6.544;2024-02-26T02:40:49;99455.81;;;6.88;88.70
14117;BME280;7137;51.436;6.544;2024-02-26T02:43:50;99458.59;;;6.83;89.41
14117;BME280;7137;51.436;6.544;2024-02-26T02:46:52;99466.75;;;6.73;90.04
14117;BME280;7137;51.436;6.544;2024-02-26T02:49:53;99465.25;;;6.67;90.24
14117;BME280;7137;51.436;6.544;2024-02-26T02:52:56;99460.13;;;6.66;91.66
14117;BME280;7137;51.436;6.544;2024-02-26T02:55:58;99462.19;;;6.56;91.10
14117;BME280;7137;51.436;6.544;2024-02-26T02:58:59;99464.88;;;6.53;91.01
14117;BME280;7137;51.436;6.544;2024-02-26T03:02:01;99466.69;;;6.51;91.31
14117;BME280;7137;51.436;6.544;2024-02-26T03:05:03;99468.44;;;6.50;91.33
14117;BME280;7137;51.436;6.544;2024-02-26T03:08:06;99468.63;;;6.44;90.99
14117;BME280;7137;51.436;6.544;2024-02-26T03:11:08;99472.03;;;6.46;90.58
14117;BME280;7137;51.436;6.544;2024-02-26T03:14:09;99479.81;;;6.46;90.72
14117;BME280;7137;51.436;6.544;2024-02-26T03:17:11;99467.78;;;6.44;90.90
14117;BME280;7137;51.436;6.544;2024-02-26T03:20:12;99462.59;;;6.44;91.28
14117;BME280;7137;51.436;6.544;2024-02-26T03:23:16;99466.09;;;6.43;91.08
14117;BME280;7137;51.436;6.544;2024-02-26T03:26:17;99467.69;;;6.47;91.66
14117;BME280;7137;51.436;6.544;2024-02-26T03:29:19;99471.22;;;6.44;93.90
14117;BME280;7137;51.436;6.544;2024-02-26T03:32:20;99465.94;;;6.22;97.55
14117;BME280;7137;51.436;6.544;2024-02-26T03:35:22;99467.25;;;6.09;99.75
14117;BME280;7137;51.436;6.544;2024-02-26T03:38:25;99464.22;;;5.97;99.89
14117;BME280;7137;51.436;6.544;2024-02-26T03:41:26;99465.28;;;5.89;100.00
14117;BME280;7137;51.436;6.544;2024-02-26T03:44:28;99454.34;;;5.81;100.00
14117;BME280;7137;51.436;6.544;2024-02-26T03:47:29;99459.56;;;5.80;100.00
14117;BME280;7137;51.436;6.544;2024-02-26T03:50:31;99459.56;;;5.80;100.00
14117;BME280;7137;51.436;6.544;2024-02-26T03:53:34;99454.50;;;5.75;100.00
14117;BME280;7137;51.436;6.544;2024-02-26T03:56:35;99464.88;;;5.75;100.00
14117;BME280;7137;51.436;6.544;2024-02-26T03:59:37;99459.56;;;5.80;100.00
14117;BME280;7137;51.436;6.544;2024-02-26T04:02:39;99469.03;;;5.81;100.00
14117;BME280;7137;51.436;6.544;2024-02-26T04:05:41;99470.47;;;5.89;100.00
14117;BME280;7137;51.436;6.544;2024-02-26T04:08:44;99466.16;;;5.90;100.00
14117;BME280;7137;51.436;6.544;2024-02-26T04:11:45;99461.31;;;5.79;100.00
14117;BME280;7137;51.436;6.544;2024-02-26T04:14:47;99461.22;;;5.82;100.00
14117;BME280;7137;51.436;6.544;2024-02-26T04:17:49;99462.22;;;5.78;100.00
14117;BME280;7137;51.436;6.544;2024-02-26T04:20:51;99450.06;;;5.80;100.00
14117;BME280;7137;51.436;6.544;2024-02-26T04:23:53;99456.97;;;5.80;100.00
14117;BME280;7137;51.436;6.544;2024-02-26T04:26:56;99457.06;;;5.77;100.00
14117;BME280;7137;51.436;6.544;2024-02-26T04:29:57;99460.53;;;5.77;100.00
14117;BME280;7137;51.436;6.544;2024-02-26T04:32:59;99466.50;;;5.79;100.00
14117;BME280;7137;51.436;6.544;2024-02-26T04:36:00;99466.50;;;5.79;100.00
14117;BME280;7137;51.436;6.544;2024-02-26T04:39:04;99476.09;;;5.76;100.00
14117;BME280;7137;51.436;6.544;2024-02-26T04:42:06;99477.84;;;5.75;100.00
14117;BME280;7137;51.436;6.544;2024-02-26T04:45:08;99482.16;;;5.75;100.00
14117;BME280;7137;51.436;6.544;2024-02-26T04:48:10;99483.28;;;5.68;100.00
14117;BME280;7137;51.436;6.544;2024-02-26T04:51:12;99491.16;;;5.63;100.00
14117;BME280;7137;51.436;6.544;2024-02-26T04:54:15;99489.31;;;5.68;100.00
14117;BME280;7137;51.436;6.544;2024-02-26T04:57:17;99501.25;;;5.72;100.00
14117;BME280;7137;51.436;6.544;2024-02-26T05:00:19;99496.22;;;5.68;100.00
14117;BME280;7137;51.436;6.544;2024-02-26T05:03:20;99500.50;;;5.69;100.00
14117;BME280;7137;51.436;6.544;2024-02-26T05:06:22;99492.88;;;5.64;100.00
14117;BME280;7137;51.436;6.544;2024-02-26T05:09:25;99487.88;;;5.58;100.00
14117;BME280;7137;51.436;6.544;2024-02-26T05:12:26;99493.59;;;5.69;100.00
14117;BME280;7137;51.436;6.544;2024-02-26T05:15:28;99494.94;;;5.81;100.00
14117;BME280;7137;51.436;6.544;2024-02-26T05:18:29;99497.06;;;5.68;100.00
14117;BME280;7137;51.436;6.544;2024-02-26T05:21:31;99490.56;;;5.55;100.00
14117;BME280;7137;51.436;6.544;2024-02-26T05:24:37;99489.69;;;5.56;100.00
14117;BME280;7137;51.436;6.544;2024-02-26T05:27:38;99500.94;;;5.55;100.00
14117;BME280;7137;51.436;6.544;2024-02-26T05:30:40;99495.91;;;5.49;100.00
14117;BME280;7137;51.436;6.544;2024-02-26T05:33:41;99506.06;;;5.56;100.00
14117;BME280;7137;51.436;6.544;2024-02-26T05:36:43;99509.44;;;5.58;100.00
14117;BME280;7137;51.436;6.544;2024-02-26T05:39:46;99513.69;;;5.61;100.00
14117;BME280;7137;51.436;6.544;2024-02-26T05:42:48;99507.16;;;5.49;100.00
14117;BME280;7137;51.436;6.544;2024-02-26T05:45:49;99517.78;;;5.40;100.00
14117;BME280;7137;51.436;6.544;2024-02-26T05:48:52;99511.47;;;5.49;100.00
14117;BME280;7137;51.436;6.544;2024-02-26T05:51:53;99514.09;;;5.47;100.00
14117;BME280;7137;51.436;6.544;2024-02-26T05:54:56;99516.84;;;5.43;100.00
14117;BME280;7137;51.436;6.544;2024-02-26T05:57:58;99516.75;;;5.46;100.00
14117;BME280;7137;51.436;6.544;2024-02-26T06:00:59;99525.50;;;5.42;100.00
14117;BME280;7137;51.436;6.544;2024-02-26T06:04:01;99531.53;;;5.42;100.00
14117;BME280;7137;51.436;6.544;2024-02-26T06:07:02;99528.09;;;5.42;100.00
14117;BME280;7137;51.436;6.544;2024-02-26T06:10:07;99538.44;;;5.42;100.00
14117;BME280;7137;51.436;6.544;2024-02-26T06:13:09;99538.53;;;5.39;100.00
14117;BME280;7137;51.436;6.544;2024-02-26T06:16:10;99542.88;;;5.38;100.00
14117;BME280;7137;51.436;6.544;2024-02-26T06:19:12;99557.72;;;5.31;100.00
14117;BME280;7137;51.436;6.544;2024-02-26T06:22:13;99552.44;;;5.34;100.00
14117;BME280;7137;51.436;6.544;2024-02-26T06:25:16;99552.25;;;5.42;100.00
14117;BME280;7137;51.436;6.544;2024-02-26T06:28:18;99549.00;;;5.35;100.00
14117;BME280;7137;51.436;6.544;2024-02-26T06:31:19;99554.19;;;5.35;100.00
14117;BME280;7137;51.436;6.544;2024-02-26T06:34:21;99563.53;;;5.40;100.00
14117;BME280;7137;51.436;6.544;2024-02-26T06:37:23;99562.59;;;5.42;100.00
14117;BME280;7137;51.436;6.544;2024-02-26T06:40:27;99560.06;;;5.41;100.00
14117;BME280;7137;51.436;6.544;2024-02-26T06:43:28;99566.97;;;5.40;100.00
14117;BME280;7137;51.436;6.544;2024-02-26T06:46:30;99568.56;;;5.44;100.00
14117;BME280;7137;51.436;6.544;2024-02-26T06:49:31;99563.34;;;5.46;100.00
14117;BME280;7137;51.436;6.544;2024-02-26T06:52:33;99575.59;;;5.41;100.00
14117;BME280;7137;51.436;6.544;2024-02-26T06:55:36;99574.66;;;5.43;100.00
14117;BME280;7137;51.436;6.544;2024-02-26T06:58:40;99574.88;;;5.35;100.00
14117;BME280;7137;51.436;6.544;2024-02-26T07:01:42;99587.75;;;5.39;100.00
14117;BME280;7137;51.436;6.544;2024-02-26T07:04:43;99581.72;;;5.38;100.00
14117;BME280;7137;51.436;6.544;2024-02-26T07:07:45;99593.63;;;5.44;100.00
14117;BME280;7137;51.436;6.544;2024-02-26T07:10:48;99591.69;;;5.52;100.00
14117;BME280;7137;51.436;6.544;2024-02-26T07:13:49;99603.69;;;5.54;100.00
14117;BME280;7137;51.436;6.544;2024-02-26T07:16:51;99595.88;;;5.56;100.00
14117;BME280;7137;51.436;6.544;2024-02-26T07:19:52;99603.00;;;5.48;100.00
14117;BME280;7137;51.436;6.544;2024-02-26T07:22:54;99609.91;;;5.47;100.00
14117;BME280;7137;51.436;6.544;2024-02-26T07:25:57;99611.66;;;5.47;100.00
14117;BME280;7137;51.436;6.544;2024-02-26T07:28:58;99608.81;;;5.56;100.00
14117;BME280;7137;51.436;6.544;2024-02-26T07:32:00;99621.84;;;5.53;100.00
14117;BME280;7137;51.436;6.544;2024-02-26T07:35:01;99620.03;;;5.56;100.00
14117;BME280;7137;51.436;6.544;2024-02-26T07:38:03;99621.94;;;5.50;100.00
14117;BME280;7137;51.436;6.544;2024-02-26T07:41:06;99622.81;;;5.49;100.00
14117;BME280;7137;51.436;6.544;2024-02-26T07:44:08;99628.78;;;5.52;100.00
14117;BME280;7137;51.436;6.544;2024-02-26T07:47:10;99627.84;;;5.55;100.00
14117;BME280;7137;51.436;6.544;2024-02-26T07:50:12;99634.97;;;5.47;100.00
14117;BME280;7137;51.436;6.544;2024-02-26T07:53:13;99633.16;;;5.49;100.00
14117;BME280;7137;51.436;6.544;2024-02-26T07:56:16;99642.63;;;5.51;100.00
14117;BME280;7137;51.436;6.544;2024-02-26T07:59:18;99648.59;;;5.53;100.00
14117;BME280;7137;51.436;6.544;2024-02-26T08:02:20;99649.34;;;5.57;100.00
14117;BME280;7137;51.436;6.544;2024-02-26T08:05:22;99656.94;;;5.64;100.00
14117;BME280;7137;51.436;6.544;2024-02-26T08:08:25;99664.72;;;5.63;100.00
14117;BME280;7137;51.436;6.544;2024-02-26T08:11:28;99666.44;;;5.62;100.00
14117;BME280;7137;51.436;6.544;2024-02-26T08:14:29;99666.44;;;5.64;100.00
14117;BME280;7137;51.436;6.544;2024-02-26T08:17:33;99666.34;;;5.67;100.00
14117;BME280;7137;51.436;6.544;2024-02-26T08:20:34;99675.84;;;5.66;100.00
14117;BME280;7137;51.436;6.544;2024-02-26T08:23:36;99681.88;;;5.67;100.00
14117;BME280;7137;51.436;6.544;2024-02-26T08:26:39;99675.56;;;5.76;100.00
14117;BME280;7137;51.436;6.544;2024-02-26T08:29:40;99679.75;;;5.81;100.00
14117;BME280;7137;51.436;6.544;2024-02-26T08:32:42;99682.66;;;5.71;100.00
14117;BME280;7137;51.436;6.544;2024-02-26T08:35:44;99697.94;;;5.80;100.00
14117;BME280;7137;51.436;6.544;2024-02-26T08:38:46;99698.75;;;5.82;100.00
14117;BME280;7137;51.436;6.544;2024-02-26T08:41:48;99699.50;;;5.85;100.00
14117;BME280;7137;51.436;6.544;2024-02-26T08:44:50;99706.91;;;5.68;100.00
14117;BME280;7137;51.436;6.544;2024-02-26T08:47:51;99699.25;;;5.63;100.00
14117;BME280;7137;51.436;6.544;2024-02-26T08:50:53;99703.66;;;5.60;100.00
14117;BME280;7137;51.436;6.544;2024-02-26T08:53:54;99698.56;;;5.57;100.00
14117;BME280;7137;51.436;6.544;2024-02-26T08:56:57;99706.28;;;5.58;100.00
14117;BME280;7137;51.436;6.544;2024-02-26T08:59:59;99712.09;;;5.68;100.00
14117;BME280;7137;51.436;6.544;2024-02-26T09:03:00;99722.41;;;5.70;100.00
14117;BME280;7137;51.436;6.544;2024-02-26T09:06:02;99724.03;;;5.72;100.00
14117;BME280;7137;51.436;6.544;2024-02-26T09:09:03;99732.72;;;5.71;100.00
14117;BME280;7137;51.436;6.544;2024-02-26T09:12:07;99731.97;;;5.68;100.00
14117;BME280;7137;51.436;6.544;2024-02-26T09:15:09;99737.97;;;5.68;100.00
14117;BME280;7137;51.436;6.544;2024-02-26T09:18:11;99737.13;;;5.68;100.00
14117;BME280;7137;51.436;6.544;2024-02-26T09:21:15;99744.78;;;5.72;100.00
14117;BME280;7137;51.436;6.544;2024-02-26T09:24:23;99742.47;;;5.61;100.00
14117;BME280;7137;51.436;6.544;2024-02-26T09:27:26;99753.06;;;5.54;100.00
14117;BME280;7137;51.436;6.544;2024-02-26T09:30:27;99752.09;;;5.56;100.00
14117;BME280;7137;51.436;6.544;2024-02-26T09:33:29;99742.41;;;5.63;100.00
14117;BME280;7137;51.436;6.544;2024-02-26T09:36:30;99758.72;;;5.68;100.00
14117;BME280;7137;51.436;6.544;2024-02-26T09:39:32;99757.78;;;5.71;100.00
14117;BME280;7137;51.436;6.544;2024-02-26T09:42:35;99756.44;;;5.87;100.00
14117;BME280;7137;51.436;6.544;2024-02-26T09:45:36;99767.59;;;5.90;100.00
14117;BME280;7137;51.436;6.544;2024-02-26T09:48:38;99774.81;;;5.79;100.00
14117;BME280;7137;51.436;6.544;2024-02-26T09:51:42;99778.31;;;5.78;100.00
14117;BME280;7137;51.436;6.544;2024-02-26T09:54:47;99787.59;;;5.85;100.00
14117;BME280;7137;51.436;6.544;2024-02-26T09:57:51;99791.28;;;5.77;100.00
14117;BME280;7137;51.436;6.544;2024-02-26T10:00:55;99791.31;;;5.75;100.00
14117;BME280;7137;51.436;6.544;2024-02-26T10:03:59;99798.41;;;5.69;100.00
14117;BME280;7137;51.436;6.544;2024-02-26T10:07:01;99806.75;;;5.80;100.00
14117;BME280;7137;51.436;6.544;2024-02-26T10:10:04;99810.34;;;5.74;100.00
14117;BME280;7137;51.436;6.544;2024-02-26T10:13:08;99808.56;;;5.78;100.00
14117;BME280;7137;51.436;6.544;2024-02-26T10:16:11;99812.56;;;5.88;100.00
14117;BME280;7137;51.436;6.544;2024-02-26T10:19:25;99811.94;;;5.80;100.00
14117;BME280;7137;51.436;6.544;2024-02-26T10:22:27;99819.53;;;5.86;100.00
14117;BME280;7137;51.436;6.544;2024-02-26T10:25:29;99827.44;;;5.81;100.00
14117;BME280;7137;51.436;6.544;2024-02-26T10:28:33;99826.06;;;5.68;100.00
14117;BME280;7137;51.436;6.544;2024-02-26T10:31:34;99825.78;;;5.79;100.00
14117;BME280;7137;51.436;6.544;2024-02-26T10:34:36;99831.72;;;5.82;100.00
14117;BME280;7137;51.436;6.544;2024-02-26T10:37:39;99834.28;;;5.84;100.00
14117;BME280;7137;51.436;6.544;2024-02-26T10:40:41;99841.44;;;5.74;100.00
14117;BME280;7137;51.436;6.544;2024-02-26T10:43:44;99854.94;;;5.87;100.00
14117;BME280;7137;51.436;6.544;2024-02-26T10:46:47;99853.19;;;5.87;100.00
14117;BME280;7137;51.436;6.544;2024-02-26T10:49:50;99856.34;;;6.00;100.00
14117;BME280;7137;51.436;6.544;2024-02-26T10:52:52;99866.63;;;6.03;100.00
14117;BME280;7137;51.436;6.544;2024-02-26T10:55:58;99869.28;;;6.00;100.00
14117;BME280;7137;51.436;6.544;2024-02-26T10:59:03;99870.44;;;5.88;100.00
14117;BME280;7137;51.436;6.544;2024-02-26T11:02:08;99880.25;;;6.11;100.00
14117;BME280;7137;51.436;6.544;2024-02-26T11:05:11;99879.53;;;6.06;100.00
14117;BME280;7137;51.436;6.544;2024-02-26T11:08:13;99874.16;;;6.12;100.00
14117;BME280;7137;51.436;6.544;2024-02-26T11:11:16;99882.50;;;6.23;100.00
14117;BME280;7137;51.436;6.544;2024-02-26T11:14:19;99885.28;;;6.16;100.00
14117;BME280;7137;51.436;6.544;2024-02-26T11:17:22;99888.53;;;6.24;100.00
14117;BME280;7137;51.436;6.544;2024-02-26T11:20:28;99894.56;;;6.24;100.00
14117;BME280;7137;51.436;6.544;2024-02-26T11:23:29;99890.28;;;6.23;100.00
14117;BME280;7137;51.436;6.544;2024-02-26T11:26:33;99894.47;;;6.28;100.00
14117;BME280;7137;51.436;6.544;2024-02-26T11:29:39;99891.00;;;6.29;100.00
14117;BME280;7137;51.436;6.544;2024-02-26T11:32:44;99892.97;;;6.20;100.00
14117;BME280;7137;51.436;6.544;2024-02-26T11:35:45;99891.81;;;6.31;100.00
14117;BME280;7137;51.436;6.544;2024-02-26T11:38:47;99894.06;;;6.43;100.00
14117;BME280;7137;51.436;6.544;2024-02-26T11:41:51;99884.81;;;6.34;100.00
14117;BME280;7137;51.436;6.544;2024-02-26T11:44:54;99892.59;;;6.34;100.00
14117;BME280;7137;51.436;6.544;2024-02-26T11:48:01;99893.44;;;6.35;100.00
14117;BME280;7137;51.436;6.544;2024-02-26T11:51:04;99894.53;;;6.26;100.00
14117;BME280;7137;51.436;6.544;2024-02-26T11:54:06;99889.16;;;6.34;100.00
14117;BME280;7137;51.436;6.544;2024-02-26T11:57:21;99897.97;;;6.27;100.00
14117;BME280;7137;51.436;6.544;2024-02-26T12:00:24;99908.22;;;6.31;100.00
14117;BME280;7137;51.436;6.544;2024-02-26T12:03:28;99899.81;;;6.54;100.00
14117;BME280;7137;51.436;6.544;2024-02-26T12:06:30;99911.56;;;6.36;100.00
14117;BME280;7137;51.436;6.544;2024-02-26T12:09:35;99913.25;;;6.37;100.00
14117;BME280;7137;51.436;6.544;2024-02-26T12:12:37;99913.03;;;6.45;100.00
14117;BME280;7137;51.436;6.544;2024-02-26T12:15:42;99917.16;;;6.52;100.00
14117;BME280;7137;51.436;6.544;2024-02-26T12:18:44;99917.25;;;6.49;100.00
14117;BME280;7137;51.436;6.544;2024-02-26T12:21:51;99919.09;;;6.44;100.00
14117;BME280;7137;51.436;6.544;2024-02-26T12:24:58;99915.50;;;6.49;100.00
14117;BME280;7137;51.436;6.544;2024-02-26T12:28:01;99925.88;;;6.49;100.00
14117;BME280;7137;51.436;6.544;2024-02-26T12:31:04;99925.56;;;6.60;100.00
14117;BME280;7137;51.436;6.544;2024-02-26T12:34:06;99938.03;;;6.47;100.00
14117;BME280;7137;51.436;6.544;2024-02-26T12:37:10;99932.53;;;6.58;100.00
14117;BME280;7137;51.436;6.544;2024-02-26T12:40:11;99940.41;;;6.55;100.00
14117;BME280;7137;51.436;6.544;2024-02-26T12:43:13;99940.47;;;6.53;100.00
14117;BME280;7137;51.436;6.544;2024-02-26T12:46:16;99934.84;;;6.69;100.00
14117;BME280;7137;51.436;6.544;2024-02-26T12:49:17;99952.03;;;6.73;100.00
14117;BME280;7137;51.436;6.544;2024-02-26T12:52:19;99954.91;;;6.64;100.00
14117;BME280;7137;51.436;6.544;2024-02-26T12:55:22;99955.88;;;6.89;100.00
14117;BME280;7137;51.436;6.544;2024-02-26T12:58:23;99960.50;;;6.79;100.00
14117;BME280;7137;51.436;6.544;2024-02-26T13:01:29;99973.38;;;6.82;100.00
14117;BME280;7137;51.436;6.544;2024-02-26T13:04:31;99968.50;;;6.72;100.00
14117;BME280;7137;51.436;6.544;2024-02-26T13:07:34;99984.06;;;6.72;100.00
14117;BME280;7137;51.436;6.544;2024-02-26T13:10:36;99984.06;;;6.72;100.00
14117;BME280;7137;51.436;6.544;2024-02-26T13:13:38;99990.31;;;6.65;100.00
14117;BME280;7137;51.436;6.544;2024-02-26T13:16:41;99979.84;;;6.68;100.00
14117;BME280;7137;51.436;6.544;2024-02-26T13:19:49;99994.47;;;6.70;100.00
14117;BME280;7137;51.436;6.544;2024-02-26T13:22:51;99989.00;;;6.81;100.00
14117;BME280;7137;51.436;6.544;2024-02-26T13:25:56;99997.72;;;6.78;100.00
14117;BME280;7137;51.436;6.544;2024-02-26T13:29:01;100007.59;;;6.66;100.00
14117;BME280;7137;51.436;6.544;2024-02-26T13:32:05;100003.13;;;6.71;100.00
14117;BME280;7137;51.436;6.544;2024-02-26T13:35:09;100015.16;;;6.73;100.00
14117;BME280;7137;51.436;6.544;2024-02-26T13:38:11;100016.06;;;6.72;100.00
14117;BME280;7137;51.436;6.544;2024-02-26T13:41:12;100019.44;;;6.76;100.00
14117;BME280;7137;51.436;6.544;2024-02-26T13:44:14;100018.44;;;6.80;100.00
14117;BME280;7137;51.436;6.544;2024-02-26T13:47:17;100022.59;;;6.85;100.00
14117;BME280;7137;51.436;6.544;2024-02-26T13:50:19;100028.91;;;6.77;100.00
14117;BME280;7137;51.436;6.544;2024-02-26T13:53:23;100034.81;;;6.82;100.00
14117;BME280;7137;51.436;6.544;2024-02-26T13:56:25;100041.84;;;6.78;100.00
14117;BME280;7137;51.436;6.544;2024-02-26T13:59:26;100041.16;;;6.72;100.00
14117;BME280;7137;51.436;6.544;2024-02-26T14:02:29;100046.19;;;6.78;100.00
14117;BME280;7137;51.436;6.544;2024-02-26T14:05:31;100044.69;;;6.69;100.00
14117;BME280;7137;51.436;6.544;2024-02-26T14:08:33;100049.97;;;6.66;100.00
14117;BME280;7137;51.436;6.544;2024-02-26T14:11:34;100052.56;;;6.66;100.00
14117;BME280;7137;51.436;6.544;2024-02-26T14:14:36;100048.25;;;6.65;100.00
14117;BME280;7137;51.436;6.544;2024-02-26T14:17:41;100049.81;;;6.71;100.00
14117;BME280;7137;51.436;6.544;2024-02-26T14:20:43;100050.53;;;6.77;100.00
14117;BME280;7137;51.436;6.544;2024-02-26T14:23:45;100055.91;;;6.70;100.00
14117;BME280;7137;51.436;6.544;2024-02-26T14:26:47;100059.28;;;6.73;100.00
14117;BME280;7137;51.436;6.544;2024-02-26T14:29:49;100062.72;;;6.74;100.00
14117;BME280;7137;51.436;6.544;2024-02-26T14:32:52;100067.94;;;6.72;100.00
14117;BME280;7137;51.436;6.544;2024-02-26T14:35:53;100068.97;;;6.67;100.00
14117;BME280;7137;51.436;6.544;2024-02-26T14:38:55;100069.75;;;6.70;100.00
14117;BME280;7137;51.436;6.544;2024-02-26T14:41:57;100079.34;;;6.67;100.00
14117;BME280;7137;51.436;6.544;2024-02-26T14:44:59;100078.66;;;6.60;100.00
14117;BME280;7137;51.436;6.544;2024-02-26T14:48:03;100094.22;;;6.60;100.00
14117;BME280;7137;51.436;6.544;2024-02-26T14:51:04;100096.91;;;6.57;100.00
14117;BME280;7137;51.436;6.544;2024-02-26T14:54:07;100101.28;;;6.55;100.00
14117;BME280;7137;51.436;6.544;2024-02-26T14:57:09;100108.22;;;6.54;100.00
14117;BME280;7137;51.436;6.544;2024-02-26T15:00:11;100117.72;;;6.54;100.00
14117;BME280;7137;51.436;6.544;2024-02-26T15:03:14;100116.97;;;6.50;100.00
14117;BME280;7137;51.436;6.544;2024-02-26T15:06:17;100125.72;;;6.45;100.00
14117;BME280;7137;51.436;6.544;2024-02-26T15:09:19;100135.28;;;6.43;100.00
14117;BME280;7137;51.436;6.544;2024-02-26T15:12:21;100134.44;;;6.42;100.00
14117;BME280;7137;51.436;6.544;2024-02-26T15:15:23;100142.31;;;6.39;100.00
14117;BME280;7137;51.436;6.544;2024-02-26T15:18:26;100137.13;;;6.39;100.00
14117;BME280;7137;51.436;6.544;2024-02-26T15:21:27;100139.66;;;6.41;100.00
14117;BME280;7137;51.436;6.544;2024-02-26T15:24:29;100140.56;;;6.40;100.00
14117;BME280;7137;51.436;6.544;2024-02-26T15:27:30;100150.00;;;6.42;100.00
14117;BME280;7137;51.436;6.544;2024-02-26T15:30:32;100149.28;;;6.37;100.00
14117;BME280;7137;51.436;6.544;2024-02-26T15:33:35;100154.41;;;6.39;100.00
14117;BME280;7137;51.436;6.544;2024-02-26T15:36:36;100162.97;;;6.42;100.00
14117;BME280;7137;51.436;6.544;2024-02-26T15:39:38;100178.63;;;6.39;100.00
14117;BME280;7137;51.436;6.544;2024-02-26T15:42:39;100180.44;;;6.36;100.00
14117;BME280;7137;51.436;6.544;2024-02-26T15:45:41;100185.63;;;6.36;100.00
14117;BME280;7137;51.436;6.544;2024-02-26T15:48:44;100183.16;;;6.30;100.00
14117;BME280;7137;51.436;6.544;2024-02-26T15:51:45;100185.78;;;6.28;100.00
14117;BME280;7137;51.436;6.544;2024-02-26T15:54:47;100193.59;;;6.27;100.00
14117;BME280;7137;51.436;6.544;2024-02-26T15:57:49;100200.59;;;6.23;100.00
14117;BME280;7137;51.436;6.544;2024-02-26T16:00:50;100198.03;;;6.21;100.00
14117;BME280;7137;51.436;6.544;2024-02-26T16:03:54;100208.31;;;6.26;100.00
14117;BME280;7137;51.436;6.544;2024-02-26T16:06:59;100218.81;;;6.20;100.00
14117;BME280;7137;51.436;6.544;2024-02-26T16:10:02;100228.31;;;6.21;100.00
14117;BME280;7137;51.436;6.544;2024-02-26T16:13:04;100235.94;;;6.27;100.00
14117;BME280;7137;51.436;6.544;2024-02-26T16:16:11;100243.06;;;6.17;100.00
14117;BME280;7137;51.436;6.544;2024-02-26T16:19:17;100236.13;;;6.18;100.00
14117;BME280;7137;51.436;6.544;2024-02-26T16:22:19;100237.91;;;6.16;100.00